Time;durP1;ratioP1;P1;durP2;ratioP2;P2;SDS_P1;SDS_P2;PMS_P1;PMS_P2;Temp;Humidity;BMP_temperature;BMP_pressure;BME280_temperature;BME280_humidity;BME280_pressure;Samples;Min_cycle;Max_cycle;Signal;HPM_P1;HPM_P2
2021/07/20 00:01:40;;;;;;;10.80;3.50;;;;;;;14.06;76.74;101305.38;124965;1095;64252;-79
2021/07/20 00:04:35;;;;;;;6.07;3.80;;;;;;;14.10;76.89;101298.66;124877;1096;64767;-84
2021/07/20 00:07:20;;;;;;;;;;;;;;;;;;;;;
2021/07/20 00:09:50;;;;;;;8.90;4.07;;;;;;;14.14;76.80;101297.28;125135;1095;65387;-81
2021/07/20 00:12:17;;;;;;;9.93;4.43;;;;;;;14.15;76.42;101301.59;125125;1095;64345;-80
2021/07/20 00:14:47;;;;;;;7.30;3.80;;;;;;;14.17;76.70;101298.75;125238;1096;64380;-83
2021/07/20 00:17:22;;;;;;;6.33;3.43;;;;;;;14.19;76.35;101302.89;125134;1096;64294;-80
2021/07/20 00:20:12;;;;;;;6.83;3.27;;;;;;;14.22;76.44;101301.71;125124;1096;64279;-80
2021/07/20 00:22:53;;;;;;;5.97;3.50;;;;;;;14.23;76.12;101304.17;125277;1096;64218;-82
2021/07/20 00:25:34;;;;;;;8.37;3.33;;;;;;;14.25;76.02;101296.81;125105;1096;64224;-80
2021/07/20 00:28:08;;;;;;;7.47;3.30;;;;;;;14.26;76.18;101301.16;124797;1096;64293;-80
2021/07/20 00:30:37;;;;;;;6.70;3.35;;;;;;;14.27;75.84;101300.13;125094;1095;64278;-81
2021/07/20 00:33:26;;;;;;;7.53;3.33;;;;;;;14.27;75.69;101305.47;125136;1095;64393;-82
2021/07/20 00:36:18;;;;;;;7.20;3.40;;;;;;;14.26;75.85;101303.83;125060;1095;64394;-81
2021/07/20 00:38:48;;;;;;;5.73;2.80;;;;;;;14.28;75.83;101304.47;125087;1095;64278;-80
2021/07/20 00:42:17;;;;;;;10.03;2.50;;;;;;;14.30;76.15;101309.60;125035;1095;64199;-79
2021/07/20 00:44:43;;;;;;;8.60;3.25;;;;;;;14.32;75.84;101304.09;125008;1096;64335;-79
2021/07/20 00:47:14;;;;;;;9.13;3.80;;;;;;;14.33;76.13;101292.41;124948;1095;64281;-77
2021/07/20 00:49:48;;;;;;;9.47;3.40;;;;;;;14.34;75.83;101296.73;124933;1095;64304;-78
2021/07/20 00:52:38;;;;;;;6.33;3.30;;;;;;;14.35;76.10;101293.88;124793;1095;64259;-83
2021/07/20 00:55:08;;;;;;;5.73;3.97;;;;;;;14.34;75.90;101291.39;124942;1095;64255;-80
2021/07/20 00:57:36;;;;;;;12.43;4.70;;;;;;;14.33;75.98;101303.09;124968;1095;64336;-81
2021/07/20 01:00:07;;;;;;;7.17;3.50;;;;;;;14.32;76.00;101296.91;124917;1096;64223;-81
2021/07/20 01:02:45;;;;;;;8.33;3.40;;;;;;;14.30;75.99;101292.77;125032;1095;64301;-80
2021/07/20 01:05:21;;;;;;;5.87;2.87;;;;;;;14.30;76.17;101303.44;124995;1096;65392;-80
2021/07/20 01:07:53;;;;;;;5.87;2.90;;;;;;;14.28;76.17;101300.98;124930;1095;64259;-80
2021/07/20 01:10:26;;;;;;;7.13;3.00;;;;;;;14.29;76.37;101297.28;124987;1095;64261;-79
2021/07/20 01:12:58;;;;;;;11.83;2.90;;;;;;;14.29;75.90;101297.28;124842;1095;64422;-80
2021/07/20 01:15:27;;;;;;;5.23;3.10;;;;;;;14.30;76.16;101287.43;124927;1095;64464;-80
2021/07/20 01:18:16;;;;;;;5.77;2.70;;;;;;;14.30;76.33;101303.44;125081;1095;64279;-83
2021/07/20 01:20:43;;;;;;;6.80;3.65;;;;;;;14.30;76.11;101292.77;124637;1095;64287;-80
2021/07/20 01:23:20;;;;;;;9.20;3.77;;;;;;;14.30;76.12;101287.43;124823;1096;64243;-79
2021/07/20 01:25:49;;;;;;;6.40;2.77;;;;;;;14.30;76.30;101290.09;124900;1096;64731;-78
2021/07/20 01:28:43;;;;;;;7.73;2.97;;;;;;;14.30;76.36;101292.77;125321;1095;64208;-79
2021/07/20 01:31:15;;;;;;;6.47;3.00;;;;;;;14.30;76.21;101287.43;124817;1095;64275;-82
2021/07/20 01:33:56;;;;;;;6.93;2.67;;;;;;;14.28;76.20;101283.12;124872;1095;64275;-80
2021/07/20 01:36:25;;;;;;;6.90;3.53;;;;;;;14.29;76.04;101286.61;124748;1096;64211;-80
2021/07/20 01:39:13;;;;;;;6.65;2.95;;;;;;;14.30;76.16;101282.09;124815;1095;64508;-79
2021/07/20 01:42:02;;;;;;;7.03;3.80;;;;;;;14.30;76.02;101279.42;124969;1096;64297;-79
2021/07/20 01:44:52;;;;;;;6.40;3.30;;;;;;;14.30;76.14;101287.43;124839;1096;64716;-75
2021/07/20 01:47:28;;;;;;;7.10;3.20;;;;;;;14.30;76.57;101287.43;125242;1096;64406;-79
2021/07/20 01:50:10;;;;;;;5.20;3.10;;;;;;;14.30;76.50;101282.09;124858;1095;64296;-78
2021/07/20 01:52:58;;;;;;;4.90;2.33;;;;;;;14.31;76.54;101289.10;124946;1096;64308;-81
2021/07/20 01:55:30;;;;;;;9.20;2.83;;;;;;;14.32;76.48;101285.41;125090;1096;64207;-79
2021/07/20 01:57:57;;;;;;;7.80;2.73;;;;;;;14.32;76.46;101282.73;124877;1096;64259;-79
2021/07/20 02:00:34;;;;;;;4.30;2.57;;;;;;;14.33;76.63;101289.75;124913;1094;64249;-79
2021/07/20 02:03:26;;;;;;;5.07;2.83;;;;;;;14.34;76.36;101292.20;124825;1096;64304;-79
2021/07/20 02:09:14;;;;;;;5.97;3.60;;;;;;;14.34;76.47;101272.70;124519;1100;64430;-80
2021/07/20 02:11:44;;;;;;;6.37;3.60;;;;;;;14.33;76.27;101279.07;124638;1099;64365;-79
2021/07/20 02:14:16;;;;;;;7.70;2.57;;;;;;;14.32;76.47;101280.06;126567;1095;64188;-80
2021/07/20 02:16:50;;;;;;;9.33;3.23;;;;;;;14.33;76.19;101281.73;125466;1095;64224;-81
2021/07/20 02:19:39;;;;;;;;;;;;;;;;;;;;;
2021/07/20 02:22:20;;;;;;;6.13;3.50;;;;;;;14.35;76.33;101287.72;125101;1095;64178;-80
2021/07/20 02:25:12;;;;;;;8.70;3.37;;;;;;;14.33;76.29;101279.07;125065;1096;64298;-79
2021/07/20 02:28:00;;;;;;;5.70;2.27;;;;;;;14.35;76.36;101285.05;124917;1095;65013;-80
2021/07/20 02:30:37;;;;;;;5.47;3.30;;;;;;;14.36;76.31;101286.69;124881;1095;64264;-80
2021/07/20 02:33:05;;;;;;;5.30;3.05;;;;;;;14.37;76.37;101291.86;124811;1096;64384;-85
2021/07/20 02:35:40;;;;;;;6.47;3.73;;;;;;;14.37;76.52;101285.70;125279;1096;64276;-79
2021/07/20 02:38:21;;;;;;;;;;;;;;;;;;;;;
2021/07/20 02:41:29;;;;;;;;;;;;;;;;;;;;;
2021/07/20 02:44:36;;;;;;;6.40;3.43;;;;;;;14.36;76.53;101276.02;124840;1095;64227;-81
2021/07/20 02:47:07;;;;;;;4.57;1.70;;;;;;;14.36;76.60;101282.17;124406;1096;64410;-79
2021/07/20 02:49:40;;;;;;;6.17;3.00;;;;;;;14.36;76.60;101276.02;124839;1096;64298;-82
2021/07/20 02:52:09;;;;;;;7.53;3.57;;;;;;;14.37;76.56;101275.02;124863;1095;64355;-78
2021/07/20 02:55:00;;;;;;;6.17;2.77;;;;;;;14.37;76.50;101272.35;124990;1095;64291;-79
2021/07/20 02:57:32;;;;;;;8.80;2.90;;;;;;;14.37;76.66;101277.69;124942;1096;64230;-80
2021/07/20 03:00:02;;;;;;;4.80;2.83;;;;;;;14.36;76.80;101286.69;124750;1096;64287;-76
2021/07/20 03:02:44;;;;;;;4.30;2.40;;;;;;;14.35;76.84;101283.20;124890;1096;64284;-80
2021/07/20 03:05:44;;;;;;;6.87;2.70;;;;;;;14.34;76.59;101289.54;124928;1095;64303;-79
2021/07/20 03:08:15;;;;;;;7.10;2.63;;;;;;;14.35;76.63;101285.88;124864;1096;64300;-80
2021/07/20 03:10:45;;;;;;;5.73;2.67;;;;;;;14.34;77.14;101284.20;125617;1095;64307;-79
2021/07/20 03:13:19;;;;;;;6.43;2.23;;;;;;;14.35;77.14;101285.88;126321;1096;64275;-80
2021/07/20 03:15:46;;;;;;;5.00;2.13;;;;;;;14.38;77.17;101290.00;124985;1096;64301;-81
2021/07/20 03:18:16;;;;;;;7.60;3.07;;;;;;;14.41;77.21;101293.14;125000;1096;64230;-79
2021/07/20 03:21:16;;;;;;;;;;;;;;;;;;;;;
2021/07/20 03:24:26;;;;;;;7.33;3.13;;;;;;;14.40;77.09;101301.33;125053;1096;64253;-79
2021/07/20 03:27:01;;;;;;;5.10;3.20;;;;;;;14.37;77.37;101301.71;125071;1095;64399;-79
2021/07/20 03:29:29;;;;;;;5.05;2.80;;;;;;;14.35;77.31;101301.06;128380;1096;61943;-79
2021/07/20 03:32:00;;;;;;;6.90;3.13;;;;;;;14.35;77.26;101301.06;125506;1096;64292;-81
2021/07/20 03:34:28;;;;;;;5.90;2.60;;;;;;;14.34;77.72;101300.22;124932;1096;64273;-79
2021/07/20 03:37:27;;;;;;;;;;;;;;;;;;;;;
2021/07/20 03:40:24;;;;;;;7.17;2.27;;;;;;;14.33;77.41;101295.09;124983;1096;64339;-83
2021/07/20 03:43:19;;;;;;;5.10;2.10;;;;;;;14.35;77.52;101301.06;124965;1094;64297;-79
2021/07/20 03:46:06;;;;;;;6.97;2.43;;;;;;;14.37;77.88;101293.70;125081;1095;64222;-82
2021/07/20 03:48:47;;;;;;;;;;;;;;;;;;;;;
2021/07/20 03:51:37;;;;;;;7.00;2.40;;;;;;;14.40;77.85;101298.66;125625;1096;64252;-82
2021/07/20 03:54:18;;;;;;;4.53;2.73;;;;;;;14.40;77.66;101304.00;124874;1095;64428;-81
2021/07/20 03:57:19;;;;;;;;;;;;;;;;;;;;;
2021/07/20 04:00:07;;;;;;;7.27;2.63;;;;;;;14.43;77.54;101304.46;124958;1096;64278;-80
2021/07/20 04:03:21;;;;;;;5.43;2.47;;;;;;;14.44;77.69;101302.62;124889;1095;64210;-79
2021/07/20 04:06:49;;;;;;;5.90;2.47;;;;;;;14.46;78.14;101303.26;124940;1095;64275;-78
2021/07/20 04:09:21;;;;;;;8.90;2.90;;;;;;;14.47;78.19;101302.23;124871;1095;64272;-78
2021/07/20 04:11:52;;;;;;;5.47;3.17;;;;;;;14.47;77.86;101299.56;124863;1096;64252;-79
2021/07/20 04:14:24;;;;;;;4.77;2.50;;;;;;;14.43;77.98;101303.64;124872;1095;64259;-79
2021/07/20 04:17:03;;;;;;;9.60;3.77;;;;;;;14.43;77.66;101307.13;124977;1094;63446;-80
2021/07/20 04:19:44;;;;;;;;;;;;;;;;;;;;;
2021/07/20 04:22:18;;;;;;;9.33;2.97;;;;;;;14.50;77.77;101314.41;124977;1095;64341;-80
2021/07/20 04:25:21;;;;;;;;;;;;;;;;;;;;;
2021/07/20 04:28:14;;;;;;;8.00;3.13;;;;;;;14.51;77.86;101311.52;124988;1095;64384;-80
2021/07/20 04:31:26;;;;;;;16.13;3.90;;;;;;;14.52;78.11;101302.52;125043;1096;64317;-82
2021/07/20 04:34:10;;;;;;;;;;;;;;;;;;;;;
2021/07/20 04:37:00;;;;;;;;;;;;;;;14.56;78.04;101303.84;124753;1096;64355;-81
2021/07/20 04:39:27;;;;;;;12.37;3.00;;;;;;;14.56;77.81;101309.17;124712;1096;64345;-80
2021/07/20 04:41:55;;;;;;;10.27;3.40;;;;;;;14.57;77.94;101310.81;124767;1096;64262;-80
2021/07/20 04:44:45;;;;;;;13.53;3.83;;;;;;;14.58;77.64;101319.67;124563;1095;64210;-80
2021/07/20 04:47:12;;;;;;;9.13;2.93;;;;;;;14.58;77.73;101323.17;124611;1095;64230;-81
2021/07/20 04:50:01;;;;;;;11.27;4.30;;;;;;;14.59;77.85;101319.47;124609;1095;64429;-80
2021/07/20 04:52:45;;;;;;;;;;;;;;;;;;;;;
2021/07/20 04:55:19;;;;;;;6.63;3.00;;;;;;;14.60;77.56;101315.80;124549;1096;64211;-80
2021/07/20 04:58:11;;;;;;;8.80;3.25;;;;;;;14.62;77.17;101313.77;124569;1095;64262;-81
2021/07/20 05:01:02;;;;;;;5.20;2.50;;;;;;;14.64;77.87;101319.76;124463;1095;64399;-79
2021/07/20 05:04:00;;;;;;;9.65;3.05;;;;;;;14.66;77.45;101317.73;124438;1095;64259;-82
2021/07/20 05:06:50;;;;;;;10.83;3.43;;;;;;;14.71;77.44;101317.16;125003;1096;64365;-83
2021/07/20 05:10:10;;;;;;;;;;;;;;;;;;;;;
2021/07/20 05:13:36;;;;;;;;;;;;;;;;;;;;;
2021/07/20 05:16:49;;;;;;;10.53;2.73;;;;;;;14.86;77.09;101319.80;124907;1095;64906;-79
2021/07/20 05:19:50;;;;;;;11.50;3.87;;;;;;;14.91;77.26;101319.23;124914;1095;64409;-83
2021/07/20 05:23:21;;;;;;;5.97;2.77;;;;;;;14.95;76.94;101323.19;124984;1095;64406;-82
2021/07/20 05:26:27;;;;;;;13.15;3.80;;;;;;;14.95;77.04;101324.02;125022;1096;64379;-81
2021/07/20 05:29:56;;;;;;;9.80;3.93;;;;;;;15.00;76.78;101321.63;125220;1095;64281;-80
2021/07/20 05:32:48;;;;;;;;;;;;;;;;;;;;;
2021/07/20 05:36:00;;;;;;;9.60;3.00;;;;;;;15.11;76.13;101322.12;125258;1095;64387;-82
2021/07/20 05:38:31;;;;;;;12.97;3.73;;;;;;;15.16;75.95;101327.73;125135;1096;64240;-82
2021/07/20 05:41:18;;;;;;;13.60;3.63;;;;;;;15.20;75.68;101321.81;125395;1094;64208;-81
2021/07/20 05:44:48;;;;;;;8.30;3.00;;;;;;;15.27;75.53;101328.05;125275;1095;64285;-80
2021/07/20 05:48:15;;;;;;;9.13;2.57;;;;;;;15.31;75.33;101328.50;125004;1095;65409;-80
2021/07/20 05:51:05;;;;;;;8.87;2.63;;;;;;;15.40;75.49;101332.70;125176;1095;64326;-80
2021/07/20 05:53:49;;;;;;;;;;;;;;;;;;;;;
2021/07/20 05:56:17;;;;;;;8.15;3.08;;;;;;;15.58;74.55;101332.26;125233;1096;64241;-80
2021/07/20 05:59:16;;;;;;;;;;;;;;;;;;;;;
2021/07/20 06:01:47;;;;;;;7.50;2.73;;;;;;;15.64;73.89;101327.97;125270;1095;64192;-83
2021/07/20 06:04:18;;;;;;;9.33;2.87;;;;;;;15.65;73.73;101334.98;125049;1095;64352;-82
2021/07/20 06:06:50;;;;;;;13.05;3.50;;;;;;;15.68;74.08;101334.59;125073;1096;64169;-82
2021/07/20 06:09:28;;;;;;;7.67;3.20;;;;;;;15.69;73.63;101338.93;125172;1095;64233;-81
2021/07/20 06:12:00;;;;;;;10.70;3.40;;;;;;;15.72;73.95;101341.23;126015;1095;63555;-80
2021/07/20 06:14:55;;;;;;;8.67;2.20;;;;;;;15.76;73.60;101337.16;125025;1096;64259;-79
2021/07/20 06:17:46;;;;;;;15.13;3.07;;;;;;;15.81;73.99;101345.45;124825;1095;64300;-79
2021/07/20 06:20:34;;;;;;;;;;;;;;;;;;;;;
2021/07/20 06:23:24;;;;;;;9.17;3.43;;;;;;;15.87;72.59;101350.03;124851;1095;64358;-80
2021/07/20 06:25:57;;;;;;;14.23;6.03;;;;;;;15.87;73.08;101354.53;125140;1096;64236;-80
2021/07/20 06:28:30;;;;;;;53.67;33.97;;;;;;;15.92;73.20;101356.62;124900;1095;64323;-80
2021/07/20 06:31:01;;;;;;;10.50;2.83;;;;;;;15.94;72.62;101352.75;125049;1096;64282;-80
2021/07/20 06:33:33;;;;;;;15.40;4.53;;;;;;;15.97;72.83;101348.85;125123;1095;64304;-81
2021/07/20 06:36:12;;;;;;;;;;;;;;;;;;;;;
2021/07/20 06:38:55;;;;;;;6.53;2.93;;;;;;;16.02;73.01;101354.44;124926;1094;64227;-82
2021/07/20 06:41:36;;;;;;;7.70;3.37;;;;;;;16.07;72.58;101355.52;125218;1096;64281;-81
2021/07/20 06:44:28;;;;;;;5.37;2.77;;;;;;;16.14;72.54;101360.09;125263;1095;64298;-82
2021/07/20 06:47:07;;;;;;;;;;;;;;;;;;;;;
2021/07/20 06:49:47;;;;;;;6.57;2.13;;;;;;;16.30;72.44;101362.48;125986;1096;64298;-79
2021/07/20 06:52:19;;;;;;;4.37;1.67;;;;;;;16.36;71.53;101368.88;127964;1096;64141;-79
2021/07/20 06:55:15;;;;;;;8.70;2.17;;;;;;;16.42;71.66;101363.55;126847;1096;62293;-79
2021/07/20 06:57:54;;;;;;;7.23;2.70;;;;;;;16.50;71.41;101370.61;125016;1096;64480;-80
2021/07/20 07:00:26;;;;;;;5.57;2.50;;;;;;;16.51;70.88;101366.89;124878;1096;64314;-80
2021/07/20 07:03:33;;;;;;;5.43;2.77;;;;;;;16.55;70.46;101362.80;125376;1095;64301;-81
2021/07/20 07:06:03;;;;;;;8.23;3.70;;;;;;;16.63;71.24;101364.50;125301;1096;64471;-80
2021/07/20 07:08:33;;;;;;;7.67;3.43;;;;;;;16.68;70.39;101368.25;125470;1096;64227;-79
2021/07/20 07:11:09;;;;;;;8.03;2.97;;;;;;;16.67;70.14;101374.61;125350;1096;64959;-80
2021/07/20 07:13:43;;;;;;;6.37;2.43;;;;;;;16.73;70.19;101380.22;125714;1096;64262;-81
2021/07/20 07:16:11;;;;;;;4.93;2.05;;;;;;;16.83;70.20;101386.89;125943;1096;65431;-81
2021/07/20 07:18:45;;;;;;;7.63;3.23;;;;;;;16.94;70.19;101384.64;125802;1097;64177;-81
2021/07/20 07:21:16;;;;;;;4.97;2.80;;;;;;;17.04;69.89;101377.06;125931;1096;64269;-81
2021/07/20 07:23:56;;;;;;;;;;;;;;;;;;;;;
2021/07/20 07:26:51;;;;;;;8.93;2.80;;;;;;;17.32;69.71;101379.64;125703;1095;64290;-81
2021/07/20 07:29:27;;;;;;;11.53;2.90;;;;;;;17.46;68.90;101380.48;125864;1095;64290;-81
2021/07/20 07:32:13;;;;;;;5.53;2.80;;;;;;;17.61;68.13;101382.98;125755;1095;65500;-80
2021/07/20 07:35:41;;;;;;;4.10;2.20;;;;;;;17.74;67.63;101382.98;125631;1096;64427;-80
2021/07/20 07:38:48;;;;;;;10.03;3.88;;;;;;;17.90;67.41;101382.61;125850;1095;64258;-81
2021/07/20 07:41:24;;;;;;;8.97;2.47;;;;;;;18.09;66.55;101380.13;125217;1095;64282;-79
2021/07/20 07:43:56;;;;;;;8.20;2.70;;;;;;;18.22;66.08;101385.48;125176;1095;64301;-80
2021/07/20 07:46:44;;;;;;;8.57;3.10;;;;;;;18.36;65.03;101390.83;125103;1096;64211;-79
2021/07/20 07:49:24;;;;;;;6.87;1.93;;;;;;;18.32;64.59;101402.00;125125;1096;64207;-80
2021/07/20 07:52:00;;;;;;;8.90;3.05;;;;;;;18.34;64.58;101391.88;125219;1096;64362;-81
2021/07/20 07:55:00;;;;;;;;;;;;;;;;;;;;;
2021/07/20 07:57:38;;;;;;;10.47;3.00;;;;;;;18.59;64.49;101393.87;124959;1096;64288;-79
2021/07/20 08:00:56;;;;;;;;;;;;;;;;;;;;;
2021/07/20 08:03:30;;;;;;;5.33;2.37;;;;;;;18.89;63.57;101396.92;125060;1096;64332;-80
2021/07/20 08:06:00;;;;;;;5.58;2.30;;;;;;;18.95;62.62;101392.54;125380;1095;64231;-80
2021/07/20 08:08:36;;;;;;;5.83;2.40;;;;;;;19.04;62.71;101399.34;125260;1096;64300;-80
2021/07/20 08:11:11;;;;;;;9.07;2.87;;;;;;;19.10;62.48;101390.39;125315;1095;64281;-83
2021/07/20 08:14:00;;;;;;;10.37;2.50;;;;;;;19.14;61.02;101396.17;125555;1096;64301;-81
2021/07/20 08:16:37;;;;;;;6.60;2.70;;;;;;;19.23;61.38;101396.75;125155;1094;64262;-82
2021/07/20 08:19:27;;;;;;;5.40;3.20;;;;;;;19.31;60.58;101393.81;125349;1096;64504;-81
2021/07/20 08:22:23;;;;;;;8.40;3.67;;;;;;;19.46;59.79;101386.26;125585;1095;64371;-80
2021/07/20 08:24:58;;;;;;;3.33;2.07;;;;;;;19.61;59.66;101391.33;125672;1095;64288;-81
2021/07/20 08:28:07;;;;;;;4.53;2.10;;;;;;;19.63;58.73;101389.25;125524;1095;64291;-82
2021/07/20 08:30:45;;;;;;;4.40;1.93;;;;;;;19.72;58.57;101396.06;125548;1095;64298;-80
2021/07/20 08:34:08;;;;;;;4.87;2.67;;;;;;;19.67;57.58;101386.95;125812;1096;64301;-80
2021/07/20 08:36:57;;;;;;;;;;;;;;;;;;;;;
2021/07/20 08:39:26;;;;;;;3.83;2.10;;;;;;;19.47;58.11;101393.30;125318;1095;64288;-81
2021/07/20 08:42:37;;;;;;;6.73;1.60;;;;;;;19.41;58.11;101391.48;124909;1096;64246;-80
2021/07/20 08:45:35;;;;;;;3.53;1.40;;;;;;;19.29;58.27;101391.33;125254;1096;64876;-82
2021/07/20 08:49:04;;;;;;;4.50;2.10;;;;;;;19.21;57.96;101388.06;125014;1095;64201;-82
2021/07/20 08:51:52;;;;;;;5.27;2.23;;;;;;;19.07;59.13;101396.21;125088;1096;64282;-82
2021/07/20 08:55:01;;;;;;;4.70;2.87;;;;;;;18.98;58.66;101391.28;124837;1095;64202;-83
2021/07/20 08:58:00;;;;;;;6.47;2.70;;;;;;;18.88;59.69;101392.56;125154;1095;64281;-81
2021/07/20 09:00:46;;;;;;;6.30;2.33;;;;;;;18.80;58.93;101394.67;125364;1095;64303;-82
2021/07/20 09:03:48;;;;;;;2.93;1.87;;;;;;;18.59;59.48;101391.18;124993;1096;64339;-81
2021/07/20 09:06:40;;;;;;;3.67;1.73;;;;;;;18.49;59.35;101401.56;124926;1096;64224;-81
2021/07/20 09:09:39;;;;;;;7.83;2.23;;;;;;;18.34;59.10;101401.80;125244;1096;64237;-81
2021/07/20 09:12:37;;;;;;;4.10;1.80;;;;;;;18.31;60.54;101399.52;125103;1095;64278;-81
2021/07/20 09:15:38;;;;;;;4.20;1.87;;;;;;;18.31;60.48;101397.64;125317;1096;64227;-81
2021/07/20 09:18:38;;;;;;;5.57;2.50;;;;;;;18.20;59.93;101397.47;125018;1095;64320;-81
2021/07/20 09:21:11;;;;;;;6.77;2.63;;;;;;;18.21;60.70;101402.64;125265;1096;64294;-80
2021/07/20 09:24:01;;;;;;;3.37;2.03;;;;;;;18.30;61.55;101401.38;125198;1096;64205;-81
2021/07/20 09:26:43;;;;;;;5.03;2.13;;;;;;;18.42;60.84;101400.73;125150;1096;64380;-79
2021/07/20 09:29:28;;;;;;;6.03;2.07;;;;;;;18.53;60.81;101400.08;125029;1096;64284;-80
2021/07/20 09:32:05;;;;;;;9.63;2.20;;;;;;;18.59;59.91;101403.80;125261;1095;64277;-80
2021/07/20 09:35:07;;;;;;;3.80;2.00;;;;;;;18.71;60.02;101404.80;124887;1095;64385;-80
2021/07/20 09:37:41;;;;;;;4.73;1.77;;;;;;;18.88;60.38;101403.33;125056;1095;65469;-80
2021/07/20 09:40:34;;;;;;;6.40;2.00;;;;;;;19.16;60.38;101396.79;124808;1096;64325;-82
2021/07/20 09:43:17;;;;;;;13.13;3.23;;;;;;;19.43;58.29;101408.23;125215;1096;64301;-80
2021/07/20 09:45:51;;;;;;;5.27;2.07;;;;;;;19.69;56.42;101403.72;124849;1096;64771;-80
2021/07/20 09:48:30;;;;;;;3.47;2.00;;;;;;;19.86;56.30;101404.85;124984;1096;64279;-81
2021/07/20 09:51:38;;;;;;;4.07;1.70;;;;;;;20.09;55.63;101400.73;124907;1096;64281;-80
2021/07/20 09:54:46;;;;;;;4.50;1.90;;;;;;;20.18;53.92;101404.78;125055;1095;64217;-84
2021/07/20 09:57:46;;;;;;;6.80;2.30;;;;;;;20.14;51.92;101403.58;124740;1096;64438;-81
2021/07/20 10:00:27;;;;;;;6.10;1.77;;;;;;;20.11;50.03;101399.47;124920;1096;64411;-81
2021/07/20 10:03:06;;;;;;;3.70;1.70;;;;;;;20.05;48.48;101399.53;124955;1096;64387;-80
2021/07/20 10:06:12;;;;;;;4.70;2.23;;;;;;;20.02;50.51;101397.26;125049;1095;64421;-79
2021/07/20 10:09:42;;;;;;;4.75;1.35;;;;;;;20.06;50.93;101402.01;125029;1095;64237;-82
2021/07/20 10:12:18;;;;;;;5.23;1.70;;;;;;;20.19;51.70;101395.67;124513;1098;64304;-81
2021/07/20 10:15:09;;;;;;;4.10;1.60;;;;;;;20.32;50.81;101400.93;124835;1095;64407;-80
2021/07/20 10:18:00;;;;;;;4.60;1.83;;;;;;;20.35;47.51;101408.55;125105;1096;64748;-81
2021/07/20 10:20:49;;;;;;;5.73;2.30;;;;;;;20.38;49.70;101404.61;125068;1096;64285;-81
2021/07/20 10:23:23;;;;;;;4.53;1.50;;;;;;;20.60;49.51;101405.02;125109;1096;64234;-81
2021/07/20 10:26:05;;;;;;;3.30;1.50;;;;;;;20.79;49.28;101407.73;125101;1095;64243;-79
2021/07/20 10:28:47;;;;;;;4.50;1.90;;;;;;;20.99;49.33;101405.59;125071;1094;64291;-81
2021/07/20 10:31:24;;;;;;;2.50;1.50;;;;;;;21.04;46.18;101407.61;124766;1095;64252;-80
2021/07/20 10:34:03;;;;;;;3.75;1.45;;;;;;;21.10;46.96;101406.70;125052;1096;64307;-81
2021/07/20 10:36:42;;;;;;;4.17;1.77;;;;;;;21.11;46.23;101402.97;124987;1096;64332;-78
2021/07/20 10:39:14;;;;;;;3.53;1.70;;;;;;;21.23;47.68;101405.70;125005;1095;64446;-80
2021/07/20 10:41:52;;;;;;;4.47;1.93;;;;;;;21.32;47.52;101409.74;125223;1096;64432;-81
2021/07/20 10:44:27;;;;;;;4.10;2.20;;;;;;;21.22;46.36;101398.67;124785;1095;64291;-80
2021/07/20 10:46:59;;;;;;;5.87;1.40;;;;;;;21.02;46.74;101399.77;125016;1096;64268;-81
2021/07/20 10:49:50;;;;;;;7.03;2.03;;;;;;;20.93;46.80;101401.10;125019;1095;64294;-83
2021/07/20 10:53:09;;;;;;;3.73;1.60;;;;;;;20.91;47.66;101397.81;125190;1096;64201;-81
2021/07/20 10:55:56;;;;;;;3.80;1.50;;;;;;;20.87;47.09;101391.22;124855;1096;65000;-83
2021/07/20 10:58:49;;;;;;;3.97;1.77;;;;;;;20.90;48.10;101406.97;125115;1095;64311;-81
2021/07/20 11:01:55;;;;;;;2.43;1.43;;;;;;;20.86;47.61;101405.77;125003;1095;64284;-81
2021/07/20 11:04:47;;;;;;;2.40;1.57;;;;;;;20.69;48.21;101400.97;124270;1095;64391;-79
2021/07/20 11:07:58;;;;;;;2.67;1.40;;;;;;;20.58;48.55;101401.73;124902;1095;64754;-80
2021/07/20 11:10:33;;;;;;;5.23;1.80;;;;;;;20.41;49.76;101401.46;124752;1095;64383;-81
2021/07/20 11:13:29;;;;;;;4.60;1.50;;;;;;;20.21;49.51;101404.36;125133;1095;65093;-84
2021/07/20 11:16:01;;;;;;;3.57;1.70;;;;;;;20.15;50.37;101405.24;125141;1094;64194;-83
2021/07/20 11:18:36;;;;;;;2.60;1.60;;;;;;;20.19;50.67;101405.61;124791;1096;64459;-84
2021/07/20 11:21:30;;;;;;;2.77;1.43;;;;;;;20.14;50.16;101408.97;125162;1095;64307;-81
2021/07/20 11:24:01;;;;;;;3.43;1.65;;;;;;;20.08;50.17;101407.16;124961;1095;64326;-81
2021/07/20 11:26:31;;;;;;;5.20;1.70;;;;;;;20.03;50.96;101407.00;125084;1096;64258;-79
2021/07/20 11:29:19;;;;;;;3.97;1.80;;;;;;;19.84;50.42;101406.12;125186;1095;64307;-80
2021/07/20 11:32:01;;;;;;;5.77;1.73;;;;;;;19.68;51.39;101404.77;125103;1095;64280;-83
2021/07/20 11:35:36;;;;;;;4.73;1.93;;;;;;;19.69;52.24;101403.72;124901;1096;64368;-79
2021/07/20 11:38:28;;;;;;;5.90;1.70;;;;;;;19.66;52.18;101396.09;124807;1096;64205;-80
2021/07/20 11:41:14;;;;;;;6.00;2.15;;;;;;;19.82;52.33;101400.95;125253;1095;63495;-82
2021/07/20 11:44:21;;;;;;;3.47;1.90;;;;;;;19.96;51.89;101397.11;125280;1096;64307;-82
2021/07/20 11:47:05;;;;;;;3.85;1.70;;;;;;;20.13;52.12;101407.33;125268;1095;64178;-79
2021/07/20 11:50:13;;;;;;;4.10;1.90;;;;;;;20.27;51.37;101398.06;125568;1095;64342;-77
2021/07/20 11:53:04;;;;;;;4.25;1.70;;;;;;;20.58;51.26;101403.61;124203;1099;64477;-81
2021/07/20 11:56:06;;;;;;;3.53;1.67;;;;;;;20.66;48.43;101411.41;124933;1096;64503;-79
2021/07/20 11:59:28;;;;;;;5.63;1.70;;;;;;;20.86;48.88;101405.77;124932;1096;64294;-78
2021/07/20 12:02:43;;;;;;;9.70;5.80;;;;;;;20.93;48.86;101412.73;124781;1095;64234;-79
2021/07/20 12:05:26;;;;;;;4.00;1.70;;;;;;;21.06;48.09;101400.95;124950;1096;64381;-79
2021/07/20 12:08:12;;;;;;;14.50;9.10;;;;;;;21.31;48.76;101402.68;124965;1096;64281;-78
2021/07/20 12:10:55;;;;;;;6.50;1.70;;;;;;;21.47;47.75;101399.38;125087;1096;64343;-81
2021/07/20 12:13:23;;;;;;;3.90;1.53;;;;;;;21.48;46.76;101403.70;124973;1095;64821;-79
2021/07/20 12:15:53;;;;;;;2.53;1.70;;;;;;;21.51;47.04;101395.16;125114;1096;64294;-82
2021/07/20 12:18:29;;;;;;;4.47;2.87;;;;;;;21.71;46.84;101391.33;125237;1096;64183;-79
2021/07/20 12:20:57;;;;;;;5.87;1.70;;;;;;;21.82;45.74;101384.30;125159;1095;64703;-81
2021/07/20 12:23:24;;;;;;;6.80;3.37;;;;;;;21.99;46.87;101393.34;124987;1096;64217;-81
2021/07/20 12:25:52;;;;;;;4.53;1.30;;;;;;;22.13;45.84;101383.97;124953;1095;64208;-80
2021/07/20 12:28:24;;;;;;;2.70;1.70;;;;;;;22.07;45.90;101393.00;125078;1095;64279;-81
2021/07/20 12:30:59;;;;;;;3.17;1.60;;;;;;;22.10;45.24;101394.41;125988;1095;62936;-81
2021/07/20 12:33:30;;;;;;;3.30;1.67;;;;;;;22.21;46.81;101390.91;125130;1095;64355;-81
2021/07/20 12:36:00;;;;;;;3.33;1.70;;;;;;;22.37;47.01;101384.79;125022;1095;64333;-81
2021/07/20 12:38:33;;;;;;;4.87;2.07;;;;;;;22.54;46.46;101384.07;125074;1095;64310;-79
2021/07/20 12:41:16;;;;;;;5.37;2.63;;;;;;;22.52;45.38;101386.19;125144;1096;64885;-78
2021/07/20 12:43:46;;;;;;;6.17;3.17;;;;;;;22.25;45.13;101384.00;124826;1096;64207;-81
2021/07/20 12:46:19;;;;;;;4.87;2.10;;;;;;;22.20;45.74;101386.54;125359;1096;64326;-80
2021/07/20 12:48:51;;;;;;;4.33;2.45;;;;;;;22.23;45.80;101382.57;125421;1096;64316;-80
2021/07/20 12:51:29;;;;;;;3.73;1.97;;;;;;;22.27;44.62;101389.16;124888;1095;64208;-81
2021/07/20 12:54:03;;;;;;;3.63;2.00;;;;;;;22.58;46.09;101377.13;124891;1096;64227;-80
2021/07/20 12:56:31;;;;;;;5.80;2.00;;;;;;;22.85;43.42;101384.72;124883;1096;64236;-82
2021/07/20 12:59:01;;;;;;;3.13;1.77;;;;;;;23.38;43.45;101378.98;124983;1096;64281;-81
2021/07/20 13:01:29;;;;;;;4.80;2.27;;;;;;;23.60;42.89;101365.53;125036;1095;64285;-78
2021/07/20 13:04:05;;;;;;;4.90;2.13;;;;;;;23.74;42.05;101384.19;125085;1096;64284;-80
2021/07/20 13:06:42;;;;;;;5.00;1.80;;;;;;;23.69;42.24;101371.36;125130;1096;64664;-79
2021/07/20 13:09:10;;;;;;;3.70;2.07;;;;;;;25.02;39.18;101375.12;124848;1096;64214;-81
2021/07/20 13:11:39;;;;;;;5.00;2.00;;;;;;;26.49;36.20;101364.88;124788;1096;64419;-76
2021/07/20 13:14:09;;;;;;;5.03;2.63;;;;;;;27.61;34.89;101362.43;125133;1096;64259;-80